sensor_id;sensor_type;location;lat;lon;timestamp;P1;durP1;ratioP1;P2;durP2;ratioP2
79460;SDS011;68929;42.666;23.324;2023-04-25T00:01:16;3.28;;;2.97;;
79460;SDS011;68929;42.666;23.324;2023-04-25T00:03:41;3.55;;;3.10;;
79460;SDS011;68929;42.666;23.324;2023-04-25T00:06:07;4.55;;;3.00;;
79460;SDS011;68929;42.666;23.324;2023-04-25T00:08:33;3.47;;;3.13;;
79460;SDS011;68929;42.666;23.324;2023-04-25T00:10:59;3.63;;;3.30;;
79460;SDS011;68929;42.666;23.324;2023-04-25T00:13:24;5.10;;;3.55;;
79460;SDS011;68929;42.666;23.324;2023-04-25T00:15:51;4.20;;;3.47;;
79460;SDS011;68929;42.666;23.324;2023-04-25T00:18:18;5.18;;;3.17;;
79460;SDS011;68929;42.666;23.324;2023-04-25T00:20:44;5.90;;;3.90;;
79460;SDS011;68929;42.666;23.324;2023-04-25T00:23:12;4.90;;;3.85;;
79460;SDS011;68929;42.666;23.324;2023-04-25T00:25:43;4.95;;;3.63;;
79460;SDS011;68929;42.666;23.324;2023-04-25T00:28:09;3.40;;;3.08;;
79460;SDS011;68929;42.666;23.324;2023-04-25T00:30:35;4.88;;;3.75;;
79460;SDS011;68929;42.666;23.324;2023-04-25T00:33:00;4.10;;;2.97;;
79460;SDS011;68929;42.666;23.324;2023-04-25T00:35:26;4.55;;;3.38;;
79460;SDS011;68929;42.666;23.324;2023-04-25T00:37:51;3.97;;;3.58;;
79460;SDS011;68929;42.666;23.324;2023-04-25T00:40:17;4.55;;;3.92;;
79460;SDS011;68929;42.666;23.324;2023-04-25T00:42:42;4.15;;;3.72;;
79460;SDS011;68929;42.666;23.324;2023-04-25T00:45:08;4.10;;;3.70;;
79460;SDS011;68929;42.666;23.324;2023-04-25T00:47:38;4.70;;;3.78;;
79460;SDS011;68929;42.666;23.324;2023-04-25T00:50:05;4.55;;;4.15;;
79460;SDS011;68929;42.666;23.324;2023-04-25T00:52:31;6.72;;;6.05;;
79460;SDS011;68929;42.666;23.324;2023-04-25T00:54:57;5.13;;;4.72;;
79460;SDS011;68929;42.666;23.324;2023-04-25T00:57:23;5.28;;;4.78;;
79460;SDS011;68929;42.666;23.324;2023-04-25T00:59:49;4.22;;;3.65;;
79460;SDS011;68929;42.666;23.324;2023-04-25T01:02:17;4.75;;;4.35;;
79460;SDS011;68929;42.666;23.324;2023-04-25T01:04:42;6.00;;;4.10;;
79460;SDS011;68929;42.666;23.324;2023-04-25T01:07:08;4.85;;;4.45;;
79460;SDS011;68929;42.666;23.324;2023-04-25T01:09:35;5.65;;;5.07;;
79460;SDS011;68929;42.666;23.324;2023-04-25T01:12:00;5.18;;;4.78;;
79460;SDS011;68929;42.666;23.324;2023-04-25T01:14:26;6.35;;;5.75;;
79460;SDS011;68929;42.666;23.324;2023-04-25T01:16:52;6.43;;;5.43;;
79460;SDS011;68929;42.666;23.324;2023-04-25T01:19:18;4.57;;;4.18;;
79460;SDS011;68929;42.666;23.324;2023-04-25T01:21:44;6.43;;;5.30;;
79460;SDS011;68929;42.666;23.324;2023-04-25T01:24:10;5.32;;;4.82;;
79460;SDS011;68929;42.666;23.324;2023-04-25T01:26:36;5.70;;;4.90;;
79460;SDS011;68929;42.666;23.324;2023-04-25T01:29:03;6.55;;;6.05;;
79460;SDS011;68929;42.666;23.324;2023-04-25T01:31:29;4.70;;;4.30;;
79460;SDS011;68929;42.666;23.324;2023-04-25T01:33:56;4.70;;;4.30;;
79460;SDS011;68929;42.666;23.324;2023-04-25T01:36:22;4.20;;;3.80;;
79460;SDS011;68929;42.666;23.324;2023-04-25T01:38:47;6.47;;;5.88;;
79460;SDS011;68929;42.666;23.324;2023-04-25T01:41:13;5.20;;;4.65;;
79460;SDS011;68929;42.666;23.324;2023-04-25T01:43:39;7.70;;;5.68;;
79460;SDS011;68929;42.666;23.324;2023-04-25T01:46:05;4.20;;;3.80;;
79460;SDS011;68929;42.666;23.324;2023-04-25T01:48:31;4.15;;;3.85;;
79460;SDS011;68929;42.666;23.324;2023-04-25T01:50:56;4.13;;;3.75;;
79460;SDS011;68929;42.666;23.324;2023-04-25T01:53:22;3.83;;;3.53;;
79460;SDS011;68929;42.666;23.324;2023-04-25T01:55:48;6.18;;;4.55;;
79460;SDS011;68929;42.666;23.324;2023-04-25T01:58:14;5.82;;;5.32;;
79460;SDS011;68929;42.666;23.324;2023-04-25T02:00:39;4.85;;;4.38;;
79460;SDS011;68929;42.666;23.324;2023-04-25T02:03:06;4.13;;;3.72;;
79460;SDS011;68929;42.666;23.324;2023-04-25T02:05:35;4.45;;;4.05;;
79460;SDS011;68929;42.666;23.324;2023-04-25T02:08:02;5.30;;;4.55;;
79460;SDS011;68929;42.666;23.324;2023-04-25T02:10:28;4.38;;;3.88;;
79460;SDS011;68929;42.666;23.324;2023-04-25T02:12:53;4.00;;;3.70;;
79460;SDS011;68929;42.666;23.324;2023-04-25T02:15:19;4.63;;;4.22;;
79460;SDS011;68929;42.666;23.324;2023-04-25T02:17:44;4.90;;;4.50;;
79460;SDS011;68929;42.666;23.324;2023-04-25T02:20:10;4.57;;;4.18;;
79460;SDS011;68929;42.666;23.324;2023-04-25T02:22:36;5.10;;;4.22;;
79460;SDS011;68929;42.666;23.324;2023-04-25T02:25:01;5.32;;;4.05;;
79460;SDS011;68929;42.666;23.324;2023-04-25T02:27:29;6.13;;;4.00;;
79460;SDS011;68929;42.666;23.324;2023-04-25T02:29:55;5.45;;;4.32;;
79460;SDS011;68929;42.666;23.324;2023-04-25T02:32:20;4.80;;;4.40;;
79460;SDS011;68929;42.666;23.324;2023-04-25T02:34:46;5.68;;;4.55;;
79460;SDS011;68929;42.666;23.324;2023-04-25T02:37:13;5.55;;;5.00;;
79460;SDS011;68929;42.666;23.324;2023-04-25T02:39:38;4.03;;;3.72;;
79460;SDS011;68929;42.666;23.324;2023-04-25T02:42:04;5.05;;;4.65;;
79460;SDS011;68929;42.666;23.324;2023-04-25T02:44:29;7.10;;;6.50;;
79460;SDS011;68929;42.666;23.324;2023-04-25T02:46:55;5.72;;;5.22;;
79460;SDS011;68929;42.666;23.324;2023-04-25T02:49:20;6.35;;;5.85;;
79460;SDS011;68929;42.666;23.324;2023-04-25T02:51:45;5.50;;;5.00;;
79460;SDS011;68929;42.666;23.324;2023-04-25T02:54:11;5.53;;;4.15;;
79460;SDS011;68929;42.666;23.324;2023-04-25T02:56:36;5.80;;;5.30;;
79460;SDS011;68929;42.666;23.324;2023-04-25T02:59:02;5.45;;;4.95;;
79460;SDS011;68929;42.666;23.324;2023-04-25T03:01:27;6.22;;;5.63;;
79460;SDS011;68929;42.666;23.324;2023-04-25T03:03:52;5.45;;;4.95;;
79460;SDS011;68929;42.666;23.324;2023-04-25T03:06:18;5.20;;;4.80;;
79460;SDS011;68929;42.666;23.324;2023-04-25T03:08:43;7.00;;;6.40;;
79460;SDS011;68929;42.666;23.324;2023-04-25T03:11:09;6.53;;;5.93;;
79460;SDS011;68929;42.666;23.324;2023-04-25T03:13:34;7.00;;;6.40;;
79460;SDS011;68929;42.666;23.324;2023-04-25T03:15:59;8.55;;;7.75;;
79460;SDS011;68929;42.666;23.324;2023-04-25T03:18:25;5.90;;;5.30;;
79460;SDS011;68929;42.666;23.324;2023-04-25T03:20:50;7.43;;;6.72;;
79460;SDS011;68929;42.666;23.324;2023-04-25T03:23:16;4.57;;;4.15;;
79460;SDS011;68929;42.666;23.324;2023-04-25T03:25:41;8.32;;;7.53;;
79460;SDS011;68929;42.666;23.324;2023-04-25T03:28:07;7.40;;;6.30;;
79460;SDS011;68929;42.666;23.324;2023-04-25T03:30:32;9.70;;;7.32;;
79460;SDS011;68929;42.666;23.324;2023-04-25T03:32:58;9.05;;;8.18;;
79460;SDS011;68929;42.666;23.324;2023-04-25T03:35:24;4.05;;;3.75;;
79460;SDS011;68929;42.666;23.324;2023-04-25T03:37:49;6.13;;;5.53;;
79460;SDS011;68929;42.666;23.324;2023-04-25T03:40:15;6.93;;;6.18;;
79460;SDS011;68929;42.666;23.324;2023-04-25T03:42:40;10.30;;;7.20;;
79460;SDS011;68929;42.666;23.324;2023-04-25T03:45:06;6.32;;;5.72;;
79460;SDS011;68929;42.666;23.324;2023-04-25T03:47:32;7.35;;;6.65;;
79460;SDS011;68929;42.666;23.324;2023-04-25T03:49:57;5.22;;;4.82;;
79460;SDS011;68929;42.666;23.324;2023-04-25T03:52:23;5.68;;;4.93;;
79460;SDS011;68929;42.666;23.324;2023-04-25T03:54:48;5.65;;;5.15;;
79460;SDS011;68929;42.666;23.324;2023-04-25T03:57:14;7.72;;;5.40;;
79460;SDS011;68929;42.666;23.324;2023-04-25T03:59:39;5.30;;;4.50;;
79460;SDS011;68929;42.666;23.324;2023-04-25T04:02:04;9.55;;;8.65;;
79460;SDS011;68929;42.666;23.324;2023-04-25T04:04:30;10.68;;;8.98;;
79460;SDS011;68929;42.666;23.324;2023-04-25T04:06:55;6.22;;;5.72;;
79460;SDS011;68929;42.666;23.324;2023-04-25T04:09:21;8.35;;;7.55;;
79460;SDS011;68929;42.666;23.324;2023-04-25T04:11:46;6.57;;;5.97;;
79460;SDS011;68929;42.666;23.324;2023-04-25T04:14:12;5.95;;;5.35;;
79460;SDS011;68929;42.666;23.324;2023-04-25T04:16:37;10.10;;;6.63;;
79460;SDS011;68929;42.666;23.324;2023-04-25T04:19:03;5.32;;;4.85;;
79460;SDS011;68929;42.666;23.324;2023-04-25T04:21:28;5.38;;;4.85;;
79460;SDS011;68929;42.666;23.324;2023-04-25T04:23:53;8.50;;;7.65;;
79460;SDS011;68929;42.666;23.324;2023-04-25T04:26:22;9.23;;;8.30;;
79460;SDS011;68929;42.666;23.324;2023-04-25T04:28:48;8.98;;;8.18;;
79460;SDS011;68929;42.666;23.324;2023-04-25T04:31:15;10.07;;;9.18;;
79460;SDS011;68929;42.666;23.324;2023-04-25T04:33:43;6.00;;;5.45;;
79460;SDS011;68929;42.666;23.324;2023-04-25T04:36:09;6.72;;;6.13;;
79460;SDS011;68929;42.666;23.324;2023-04-25T04:38:35;7.00;;;5.50;;
79460;SDS011;68929;42.666;23.324;2023-04-25T04:41:01;5.28;;;4.85;;
79460;SDS011;68929;42.666;23.324;2023-04-25T04:43:27;6.03;;;5.43;;
79460;SDS011;68929;42.666;23.324;2023-04-25T04:45:53;6.95;;;5.80;;
79460;SDS011;68929;42.666;23.324;2023-04-25T04:48:21;5.35;;;4.78;;
79460;SDS011;68929;42.666;23.324;2023-04-25T04:50:47;5.40;;;4.90;;
79460;SDS011;68929;42.666;23.324;2023-04-25T04:53:12;4.20;;;3.80;;
79460;SDS011;68929;42.666;23.324;2023-04-25T04:55:43;6.03;;;4.75;;
79460;SDS011;68929;42.666;23.324;2023-04-25T04:58:08;7.07;;;5.25;;
79460;SDS011;68929;42.666;23.324;2023-04-25T05:00:34;5.47;;;5.07;;
79460;SDS011;68929;42.666;23.324;2023-04-25T05:02:59;4.95;;;4.55;;
79460;SDS011;68929;42.666;23.324;2023-04-25T05:05:25;6.68;;;6.07;;
79460;SDS011;68929;42.666;23.324;2023-04-25T05:07:50;9.00;;;8.18;;
79460;SDS011;68929;42.666;23.324;2023-04-25T05:10:19;6.45;;;5.85;;
79460;SDS011;68929;42.666;23.324;2023-04-25T05:12:47;7.55;;;6.90;;
79460;SDS011;68929;42.666;23.324;2023-04-25T05:15:18;9.13;;;8.32;;
79460;SDS011;68929;42.666;23.324;2023-04-25T05:17:43;10.32;;;9.43;;
79460;SDS011;68929;42.666;23.324;2023-04-25T05:20:08;6.47;;;5.88;;
79460;SDS011;68929;42.666;23.324;2023-04-25T05:22:40;9.82;;;7.65;;
79460;SDS011;68929;42.666;23.324;2023-04-25T05:25:07;9.05;;;7.75;;
79460;SDS011;68929;42.666;23.324;2023-04-25T05:27:36;7.68;;;6.95;;
79460;SDS011;68929;42.666;23.324;2023-04-25T05:30:01;6.72;;;6.10;;
79460;SDS011;68929;42.666;23.324;2023-04-25T05:32:27;8.02;;;7.13;;
79460;SDS011;68929;42.666;23.324;2023-04-25T05:34:57;7.60;;;6.78;;
79460;SDS011;68929;42.666;23.324;2023-04-25T05:37:41;7.22;;;6.50;;
79460;SDS011;68929;42.666;23.324;2023-04-25T05:42:34;10.68;;;9.65;;
79460;SDS011;68929;42.666;23.324;2023-04-25T05:45:00;10.15;;;7.70;;
79460;SDS011;68929;42.666;23.324;2023-04-25T05:47:25;10.80;;;9.52;;
79460;SDS011;68929;42.666;23.324;2023-04-25T05:49:51;8.13;;;7.43;;
79460;SDS011;68929;42.666;23.324;2023-04-25T05:52:17;8.52;;;7.68;;
79460;SDS011;68929;42.666;23.324;2023-04-25T05:54:42;9.30;;;7.68;;
79460;SDS011;68929;42.666;23.324;2023-04-25T05:57:27;11.90;;;9.80;;
79460;SDS011;68929;42.666;23.324;2023-04-25T05:59:57;11.02;;;9.85;;
79460;SDS011;68929;42.666;23.324;2023-04-25T06:02:23;6.70;;;5.45;;
79460;SDS011;68929;42.666;23.324;2023-04-25T06:04:51;6.97;;;5.32;;
79460;SDS011;68929;42.666;23.324;2023-04-25T06:07:17;11.70;;;9.25;;
79460;SDS011;68929;42.666;23.324;2023-04-25T06:09:48;12.88;;;9.13;;
79460;SDS011;68929;42.666;23.324;2023-04-25T06:12:38;8.00;;;7.20;;
79460;SDS011;68929;42.666;23.324;2023-04-25T06:15:08;8.18;;;7.38;;
79460;SDS011;68929;42.666;23.324;2023-04-25T06:17:35;10.15;;;8.02;;
79460;SDS011;68929;42.666;23.324;2023-04-25T06:20:00;7.70;;;6.78;;
79460;SDS011;68929;42.666;23.324;2023-04-25T06:22:26;9.70;;;7.20;;
79460;SDS011;68929;42.666;23.324;2023-04-25T06:24:52;9.55;;;7.00;;
79460;SDS011;68929;42.666;23.324;2023-04-25T06:27:23;11.02;;;8.40;;
79460;SDS011;68929;42.666;23.324;2023-04-25T06:29:48;10.45;;;7.22;;
79460;SDS011;68929;42.666;23.324;2023-04-25T06:32:13;6.70;;;5.30;;
79460;SDS011;68929;42.666;23.324;2023-04-25T06:34:39;7.95;;;6.22;;
79460;SDS011;68929;42.666;23.324;2023-04-25T06:37:04;5.38;;;4.88;;
79460;SDS011;68929;42.666;23.324;2023-04-25T06:39:33;16.17;;;7.20;;
79460;SDS011;68929;42.666;23.324;2023-04-25T06:41:58;7.25;;;6.28;;
79460;SDS011;68929;42.666;23.324;2023-04-25T06:44:27;10.07;;;7.47;;
79460;SDS011;68929;42.666;23.324;2023-04-25T06:46:54;9.50;;;6.07;;
79460;SDS011;68929;42.666;23.324;2023-04-25T06:49:19;9.55;;;5.70;;
79460;SDS011;68929;42.666;23.324;2023-04-25T06:51:53;7.40;;;5.55;;
79460;SDS011;68929;42.666;23.324;2023-04-25T06:54:19;6.40;;;5.70;;
79460;SDS011;68929;42.666;23.324;2023-04-25T06:56:44;5.80;;;5.20;;
79460;SDS011;68929;42.666;23.324;2023-04-25T06:59:11;6.63;;;5.80;;
79460;SDS011;68929;42.666;23.324;2023-04-25T07:01:37;7.45;;;6.55;;
79460;SDS011;68929;42.666;23.324;2023-04-25T07:04:08;5.82;;;5.20;;
79460;SDS011;68929;42.666;23.324;2023-04-25T07:06:36;7.18;;;5.30;;
79460;SDS011;68929;42.666;23.324;2023-04-25T07:09:12;6.50;;;5.15;;
79460;SDS011;68929;42.666;23.324;2023-04-25T07:11:41;9.57;;;7.35;;
79460;SDS011;68929;42.666;23.324;2023-04-25T07:14:07;5.40;;;5.00;;
79460;SDS011;68929;42.666;23.324;2023-04-25T07:16:32;9.25;;;7.95;;
79460;SDS011;68929;42.666;23.324;2023-04-25T07:18:58;6.72;;;5.72;;
79460;SDS011;68929;42.666;23.324;2023-04-25T07:21:24;9.48;;;6.20;;
79460;SDS011;68929;42.666;23.324;2023-04-25T07:23:50;7.60;;;5.10;;
79460;SDS011;68929;42.666;23.324;2023-04-25T07:26:16;6.35;;;5.75;;
79460;SDS011;68929;42.666;23.324;2023-04-25T07:28:46;6.60;;;5.85;;
79460;SDS011;68929;42.666;23.324;2023-04-25T07:31:15;7.30;;;5.05;;
79460;SDS011;68929;42.666;23.324;2023-04-25T07:33:43;9.13;;;6.80;;
79460;SDS011;68929;42.666;23.324;2023-04-25T07:36:16;6.90;;;6.00;;
79460;SDS011;68929;42.666;23.324;2023-04-25T07:38:41;15.07;;;5.85;;
79460;SDS011;68929;42.666;23.324;2023-04-25T07:41:07;10.02;;;6.00;;
79460;SDS011;68929;42.666;23.324;2023-04-25T07:43:37;9.93;;;5.95;;
79460;SDS011;68929;42.666;23.324;2023-04-25T07:46:11;7.32;;;6.72;;
79460;SDS011;68929;42.666;23.324;2023-04-25T07:48:38;8.60;;;7.72;;
79460;SDS011;68929;42.666;23.324;2023-04-25T07:51:04;8.90;;;7.38;;
79460;SDS011;68929;42.666;23.324;2023-04-25T07:53:36;9.00;;;5.57;;
79460;SDS011;68929;42.666;23.324;2023-04-25T07:56:19;6.72;;;5.50;;
79460;SDS011;68929;42.666;23.324;2023-04-25T07:58:53;12.35;;;7.22;;
79460;SDS011;68929;42.666;23.324;2023-04-25T08:01:28;14.43;;;5.80;;
79460;SDS011;68929;42.666;23.324;2023-04-25T08:03:54;8.25;;;6.90;;
79460;SDS011;68929;42.666;23.324;2023-04-25T08:06:19;11.20;;;5.68;;
79460;SDS011;68929;42.666;23.324;2023-04-25T08:08:45;9.55;;;6.80;;
79460;SDS011;68929;42.666;23.324;2023-04-25T08:11:16;5.55;;;4.75;;
79460;SDS011;68929;42.666;23.324;2023-04-25T08:13:41;6.63;;;4.57;;
79460;SDS011;68929;42.666;23.324;2023-04-25T08:16:06;5.78;;;5.20;;
79460;SDS011;68929;42.666;23.324;2023-04-25T08:18:46;6.80;;;4.75;;
79460;SDS011;68929;42.666;23.324;2023-04-25T08:21:27;4.50;;;4.10;;
79460;SDS011;68929;42.666;23.324;2023-04-25T08:24:03;5.40;;;3.72;;
79460;SDS011;68929;42.666;23.324;2023-04-25T08:26:29;6.55;;;4.32;;
79460;SDS011;68929;42.666;23.324;2023-04-25T08:29:00;6.47;;;4.10;;
79460;SDS011;68929;42.666;23.324;2023-04-25T08:31:33;6.35;;;4.85;;
79460;SDS011;68929;42.666;23.324;2023-04-25T08:34:25;7.82;;;5.68;;
79460;SDS011;68929;42.666;23.324;2023-04-25T08:36:51;7.07;;;5.20;;
79460;SDS011;68929;42.666;23.324;2023-04-25T08:39:17;6.15;;;4.85;;
79460;SDS011;68929;42.666;23.324;2023-04-25T08:41:42;8.73;;;5.55;;
79460;SDS011;68929;42.666;23.324;2023-04-25T08:44:09;8.07;;;4.80;;
79460;SDS011;68929;42.666;23.324;2023-04-25T08:46:37;6.43;;;4.60;;
79460;SDS011;68929;42.666;23.324;2023-04-25T08:49:04;9.00;;;5.57;;
79460;SDS011;68929;42.666;23.324;2023-04-25T08:51:44;6.15;;;4.22;;
79460;SDS011;68929;42.666;23.324;2023-04-25T08:54:14;6.45;;;5.50;;
79460;SDS011;68929;42.666;23.324;2023-04-25T08:56:44;8.27;;;5.53;;
79460;SDS011;68929;42.666;23.324;2023-04-25T08:59:11;7.50;;;6.20;;
79460;SDS011;68929;42.666;23.324;2023-04-25T09:01:37;8.20;;;5.53;;
79460;SDS011;68929;42.666;23.324;2023-04-25T09:04:07;7.68;;;5.75;;
79460;SDS011;68929;42.666;23.324;2023-04-25T09:06:33;5.70;;;5.13;;
79460;SDS011;68929;42.666;23.324;2023-04-25T09:09:03;6.43;;;5.43;;
79460;SDS011;68929;42.666;23.324;2023-04-25T09:11:30;6.23;;;4.07;;
79460;SDS011;68929;42.666;23.324;2023-04-25T09:16:42;4.40;;;3.45;;
79460;SDS011;68929;42.666;23.324;2023-04-25T09:22:06;4.47;;;2.85;;
79460;SDS011;68929;42.666;23.324;2023-04-25T09:24:39;5.18;;;3.60;;
79460;SDS011;68929;42.666;23.324;2023-04-25T09:27:06;8.70;;;4.30;;
79460;SDS011;68929;42.666;23.324;2023-04-25T09:29:34;7.07;;;4.15;;
79460;SDS011;68929;42.666;23.324;2023-04-25T09:32:18;8.65;;;5.60;;
79460;SDS011;68929;42.666;23.324;2023-04-25T09:34:55;4.50;;;4.05;;
79460;SDS011;68929;42.666;23.324;2023-04-25T09:37:22;4.65;;;3.58;;
79460;SDS011;68929;42.666;23.324;2023-04-25T09:39:52;6.03;;;4.55;;
79460;SDS011;68929;42.666;23.324;2023-04-25T09:42:23;5.05;;;4.10;;
79460;SDS011;68929;42.666;23.324;2023-04-25T09:44:56;6.65;;;4.18;;
79460;SDS011;68929;42.666;23.324;2023-04-25T09:47:25;6.35;;;4.18;;
79460;SDS011;68929;42.666;23.324;2023-04-25T09:49:52;6.32;;;4.03;;
79460;SDS011;68929;42.666;23.324;2023-04-25T09:52:22;4.55;;;3.92;;
79460;SDS011;68929;42.666;23.324;2023-04-25T09:54:49;8.45;;;5.60;;
79460;SDS011;68929;42.666;23.324;2023-04-25T09:57:21;12.80;;;5.60;;
79460;SDS011;68929;42.666;23.324;2023-04-25T09:59:49;8.67;;;5.27;;
79460;SDS011;68929;42.666;23.324;2023-04-25T10:02:26;13.15;;;7.40;;
79460;SDS011;68929;42.666;23.324;2023-04-25T10:04:54;11.20;;;7.47;;
79460;SDS011;68929;42.666;23.324;2023-04-25T10:07:24;12.25;;;7.07;;
79460;SDS011;68929;42.666;23.324;2023-04-25T10:09:56;8.38;;;5.65;;
79460;SDS011;68929;42.666;23.324;2023-04-25T10:12:34;7.18;;;5.43;;
79460;SDS011;68929;42.666;23.324;2023-04-25T10:15:00;9.65;;;7.35;;
79460;SDS011;68929;42.666;23.324;2023-04-25T10:17:26;8.73;;;7.38;;
79460;SDS011;68929;42.666;23.324;2023-04-25T10:19:55;2.45;;;1.58;;
79460;SDS011;68929;42.666;23.324;2023-04-25T10:25:02;4.33;;;1.50;;
79460;SDS011;68929;42.666;23.324;2023-04-25T10:27:31;3.03;;;1.40;;
79460;SDS011;68929;42.666;23.324;2023-04-25T10:30:04;3.28;;;1.60;;
79460;SDS011;68929;42.666;23.324;2023-04-25T10:32:41;1.83;;;1.40;;
79460;SDS011;68929;42.666;23.324;2023-04-25T10:35:23;3.17;;;1.35;;
79460;SDS011;68929;42.666;23.324;2023-04-25T10:40:31;1.88;;;1.33;;
79460;SDS011;68929;42.666;23.324;2023-04-25T10:46:16;2.35;;;1.38;;
79460;SDS011;68929;42.666;23.324;2023-04-25T10:48:56;2.92;;;1.40;;
79460;SDS011;68929;42.666;23.324;2023-04-25T10:51:24;1.73;;;1.40;;
79460;SDS011;68929;42.666;23.324;2023-04-25T10:56:20;3.45;;;1.92;;
79460;SDS011;68929;42.666;23.324;2023-04-25T10:58:47;2.35;;;1.60;;
79460;SDS011;68929;42.666;23.324;2023-04-25T11:01:13;4.78;;;1.80;;
79460;SDS011;68929;42.666;23.324;2023-04-25T11:03:40;1.85;;;1.60;;
79460;SDS011;68929;42.666;23.324;2023-04-25T11:06:29;3.85;;;1.52;;
79460;SDS011;68929;42.666;23.324;2023-04-25T11:09:02;2.85;;;1.10;;
79460;SDS011;68929;42.666;23.324;2023-04-25T11:11:28;2.05;;;1.17;;
79460;SDS011;68929;42.666;23.324;2023-04-25T11:13:54;1.45;;;0.95;;
79460;SDS011;68929;42.666;23.324;2023-04-25T11:16:19;2.13;;;0.98;;
79460;SDS011;68929;42.666;23.324;2023-04-25T11:18:57;2.55;;;1.00;;
79460;SDS011;68929;42.666;23.324;2023-04-25T11:21:23;0.80;;;0.80;;
79460;SDS011;68929;42.666;23.324;2023-04-25T11:23:52;1.20;;;1.10;;
79460;SDS011;68929;42.666;23.324;2023-04-25T11:26:26;1.98;;;1.00;;
79460;SDS011;68929;42.666;23.324;2023-04-25T11:28:58;3.22;;;1.50;;
79460;SDS011;68929;42.666;23.324;2023-04-25T11:31:25;4.05;;;1.60;;
79460;SDS011;68929;42.666;23.324;2023-04-25T11:33:52;4.47;;;1.60;;
79460;SDS011;68929;42.666;23.324;2023-04-25T11:36:31;1.38;;;1.25;;
79460;SDS011;68929;42.666;23.324;2023-04-25T11:39:02;2.60;;;1.50;;
79460;SDS011;68929;42.666;23.324;2023-04-25T11:41:28;2.40;;;1.58;;
79460;SDS011;68929;42.666;23.324;2023-04-25T11:43:57;1.67;;;1.13;;
79460;SDS011;68929;42.666;23.324;2023-04-25T11:46:22;1.95;;;1.38;;
79460;SDS011;68929;42.666;23.324;2023-04-25T11:48:48;2.03;;;1.05;;
79460;SDS011;68929;42.666;23.324;2023-04-25T11:51:20;4.05;;;1.67;;
79460;SDS011;68929;42.666;23.324;2023-04-25T11:53:52;1.55;;;1.30;;
79460;SDS011;68929;42.666;23.324;2023-04-25T11:56:17;2.83;;;1.63;;
79460;SDS011;68929;42.666;23.324;2023-04-25T12:01:27;3.38;;;1.50;;
79460;SDS011;68929;42.666;23.324;2023-04-25T12:03:53;2.92;;;1.35;;
79460;SDS011;68929;42.666;23.324;2023-04-25T12:06:18;5.93;;;1.40;;
79460;SDS011;68929;42.666;23.324;2023-04-25T12:09:06;2.42;;;1.27;;
79460;SDS011;68929;42.666;23.324;2023-04-25T12:11:40;2.15;;;1.20;;
79460;SDS011;68929;42.666;23.324;2023-04-25T12:14:09;3.38;;;1.25;;
79460;SDS011;68929;42.666;23.324;2023-04-25T12:16:45;3.70;;;1.65;;
79460;SDS011;68929;42.666;23.324;2023-04-25T12:19:14;1.10;;;1.00;;
79460;SDS011;68929;42.666;23.324;2023-04-25T12:21:41;2.50;;;1.48;;
79460;SDS011;68929;42.666;23.324;2023-04-25T12:24:16;2.15;;;1.30;;
79460;SDS011;68929;42.666;23.324;2023-04-25T12:29:25;3.15;;;1.60;;
79460;SDS011;68929;42.666;23.324;2023-04-25T12:31:53;1.77;;;1.30;;
79460;SDS011;68929;42.666;23.324;2023-04-25T12:34:20;2.00;;;1.50;;
79460;SDS011;68929;42.666;23.324;2023-04-25T12:36:51;2.40;;;1.75;;
79460;SDS011;68929;42.666;23.324;2023-04-25T12:39:21;2.38;;;1.38;;
79460;SDS011;68929;42.666;23.324;2023-04-25T12:41:48;2.67;;;1.27;;
79460;SDS011;68929;42.666;23.324;2023-04-25T12:44:14;3.30;;;1.50;;
79460;SDS011;68929;42.666;23.324;2023-04-25T12:46:40;3.33;;;1.65;;
79460;SDS011;68929;42.666;23.324;2023-04-25T12:49:06;2.42;;;1.48;;
79460;SDS011;68929;42.666;23.324;2023-04-25T12:51:33;2.92;;;1.40;;
79460;SDS011;68929;42.666;23.324;2023-04-25T12:54:08;5.57;;;1.40;;
79460;SDS011;68929;42.666;23.324;2023-04-25T12:56:34;2.05;;;1.48;;
79460;SDS011;68929;42.666;23.324;2023-04-25T12:59:00;4.70;;;1.60;;
79460;SDS011;68929;42.666;23.324;2023-04-25T13:01:41;4.68;;;1.52;;
79460;SDS011;68929;42.666;23.324;2023-04-25T13:06:31;3.38;;;1.60;;
79460;SDS011;68929;42.666;23.324;2023-04-25T13:08:57;2.70;;;1.70;;
79460;SDS011;68929;42.666;23.324;2023-04-25T13:11:26;7.68;;;2.10;;
79460;SDS011;68929;42.666;23.324;2023-04-25T13:13:55;5.18;;;2.63;;
79460;SDS011;68929;42.666;23.324;2023-04-25T13:16:20;5.45;;;2.97;;
79460;SDS011;68929;42.666;23.324;2023-04-25T13:18:46;4.00;;;2.08;;
79460;SDS011;68929;42.666;23.324;2023-04-25T13:21:15;6.40;;;2.70;;
79460;SDS011;68929;42.666;23.324;2023-04-25T13:23:44;3.03;;;2.50;;
79460;SDS011;68929;42.666;23.324;2023-04-25T13:26:11;5.50;;;2.50;;
79460;SDS011;68929;42.666;23.324;2023-04-25T13:28:40;11.10;;;2.92;;
79460;SDS011;68929;42.666;23.324;2023-04-25T13:31:06;4.00;;;2.80;;
79460;SDS011;68929;42.666;23.324;2023-04-25T13:33:36;4.53;;;3.03;;
79460;SDS011;68929;42.666;23.324;2023-04-25T13:36:08;4.00;;;3.00;;
79460;SDS011;68929;42.666;23.324;2023-04-25T13:38:33;6.80;;;3.63;;
79460;SDS011;68929;42.666;23.324;2023-04-25T13:40:59;6.35;;;3.17;;
79460;SDS011;68929;42.666;23.324;2023-04-25T13:43:25;11.48;;;4.10;;
79460;SDS011;68929;42.666;23.324;2023-04-25T13:45:51;6.30;;;3.45;;
79460;SDS011;68929;42.666;23.324;2023-04-25T13:48:19;5.97;;;3.40;;
79460;SDS011;68929;42.666;23.324;2023-04-25T13:50:45;6.10;;;3.30;;
79460;SDS011;68929;42.666;23.324;2023-04-25T13:53:14;6.93;;;3.72;;
79460;SDS011;68929;42.666;23.324;2023-04-25T13:56:03;5.82;;;2.65;;
79460;SDS011;68929;42.666;23.324;2023-04-25T13:58:37;4.57;;;2.33;;
79460;SDS011;68929;42.666;23.324;2023-04-25T14:01:02;2.33;;;1.92;;
79460;SDS011;68929;42.666;23.324;2023-04-25T14:03:28;2.90;;;1.95;;
79460;SDS011;68929;42.666;23.324;2023-04-25T14:05:55;3.22;;;1.77;;
79460;SDS011;68929;42.666;23.324;2023-04-25T14:08:20;1.50;;;1.40;;
79460;SDS011;68929;42.666;23.324;2023-04-25T14:10:45;1.90;;;1.40;;
79460;SDS011;68929;42.666;23.324;2023-04-25T14:13:15;1.63;;;1.52;;
79460;SDS011;68929;42.666;23.324;2023-04-25T14:15:40;1.95;;;1.50;;
79460;SDS011;68929;42.666;23.324;2023-04-25T14:18:05;3.00;;;1.52;;
79460;SDS011;68929;42.666;23.324;2023-04-25T14:20:31;1.50;;;1.40;;
79460;SDS011;68929;42.666;23.324;2023-04-25T14:22:57;1.98;;;1.60;;
79460;SDS011;68929;42.666;23.324;2023-04-25T14:25:27;3.22;;;1.48;;
79460;SDS011;68929;42.666;23.324;2023-04-25T14:27:54;1.90;;;1.52;;
79460;SDS011;68929;42.666;23.324;2023-04-25T14:30:20;2.17;;;1.35;;
79460;SDS011;68929;42.666;23.324;2023-04-25T14:32:46;6.47;;;1.83;;
79460;SDS011;68929;42.666;23.324;2023-04-25T14:35:12;2.00;;;1.77;;
79460;SDS011;68929;42.666;23.324;2023-04-25T14:37:38;4.32;;;1.70;;
79460;SDS011;68929;42.666;23.324;2023-04-25T14:40:04;2.30;;;1.48;;
79460;SDS011;68929;42.666;23.324;2023-04-25T14:42:30;1.70;;;1.60;;
79460;SDS011;68929;42.666;23.324;2023-04-25T14:44:55;3.97;;;1.70;;
79460;SDS011;68929;42.666;23.324;2023-04-25T14:47:21;3.70;;;1.60;;
79460;SDS011;68929;42.666;23.324;2023-04-25T14:49:48;2.10;;;1.60;;
79460;SDS011;68929;42.666;23.324;2023-04-25T14:52:18;3.58;;;1.52;;
79460;SDS011;68929;42.666;23.324;2023-04-25T14:54:45;2.53;;;1.90;;
79460;SDS011;68929;42.666;23.324;2023-04-25T14:57:11;2.55;;;1.98;;
79460;SDS011;68929;42.666;23.324;2023-04-25T14:59:37;5.30;;;2.00;;
79460;SDS011;68929;42.666;23.324;2023-04-25T15:02:02;2.05;;;1.85;;
79460;SDS011;68929;42.666;23.324;2023-04-25T15:04:28;5.75;;;1.80;;